Terminal Aerodrome Forecast
Issued by NWS

Home | Current Version | Previous Version | Text Only | Print | Product List | Glossary On
Versions: 1 2 3 4 5 6 7 8 9 10 11 12 13 14 15
000
FTUS43 KDLH 210500
TAFBRD
TAF
KBRD 210520Z 2106/2206 05003KT 4SM BR SKC
      TEMPO 2106/2110 1/2SM FG SCT004
     FM211000 05003KT 3SM BR SKC
      TEMPO 2110/2113 1/2SM FG SCT004
     FM211700 14012KT P6SM SCT035=

USA.gov is the U.S. government's official web portal to all federal, state and local government web resources and services.